sensor_id;sensor_type;location;lat;lon;timestamp;P1;durP1;ratioP1;P2;durP2;ratioP2
434;SDS011;204;48.942;9.256;2022-09-29T00:00:11;9.70;;;8.53;;
434;SDS011;204;48.942;9.256;2022-09-29T00:02:37;9.90;;;8.43;;
434;SDS011;204;48.942;9.256;2022-09-29T00:05:03;11.57;;;8.80;;
434;SDS011;204;48.942;9.256;2022-09-29T00:07:29;9.20;;;8.70;;
434;SDS011;204;48.942;9.256;2022-09-29T00:09:56;11.63;;;8.30;;
434;SDS011;204;48.942;9.256;2022-09-29T00:12:22;10.53;;;8.70;;
434;SDS011;204;48.942;9.256;2022-09-29T00:14:47;13.33;;;8.20;;
434;SDS011;204;48.942;9.256;2022-09-29T00:17:13;8.03;;;7.43;;
434;SDS011;204;48.942;9.256;2022-09-29T00:19:39;8.57;;;8.07;;
434;SDS011;204;48.942;9.256;2022-09-29T00:22:05;8.60;;;7.63;;
434;SDS011;204;48.942;9.256;2022-09-29T00:24:30;8.33;;;7.90;;
434;SDS011;204;48.942;9.256;2022-09-29T00:26:56;10.10;;;8.07;;
434;SDS011;204;48.942;9.256;2022-09-29T00:29:22;14.03;;;8.60;;
434;SDS011;204;48.942;9.256;2022-09-29T00:31:47;16.67;;;8.40;;
434;SDS011;204;48.942;9.256;2022-09-29T00:34:13;13.70;;;8.63;;
434;SDS011;204;48.942;9.256;2022-09-29T00:36:39;8.60;;;8.10;;
434;SDS011;204;48.942;9.256;2022-09-29T00:39:05;11.18;;;8.35;;
434;SDS011;204;48.942;9.256;2022-09-29T00:41:32;9.10;;;7.70;;
434;SDS011;204;48.942;9.256;2022-09-29T00:44:00;10.23;;;7.60;;
434;SDS011;204;48.942;9.256;2022-09-29T00:49:37;12.65;;;7.60;;
434;SDS011;204;48.942;9.256;2022-09-29T00:52:20;9.40;;;8.02;;
434;SDS011;204;48.942;9.256;2022-09-29T00:54:52;10.38;;;8.63;;
434;SDS011;204;48.942;9.256;2022-09-29T00:57:20;10.45;;;7.68;;
434;SDS011;204;48.942;9.256;2022-09-29T00:59:55;8.52;;;8.05;;
434;SDS011;204;48.942;9.256;2022-09-29T01:02:26;7.78;;;7.28;;
434;SDS011;204;48.942;9.256;2022-09-29T01:04:54;8.23;;;7.80;;
434;SDS011;204;48.942;9.256;2022-09-29T01:07:20;8.63;;;7.25;;
434;SDS011;204;48.942;9.256;2022-09-29T01:09:47;7.68;;;7.32;;
434;SDS011;204;48.942;9.256;2022-09-29T01:12:16;8.40;;;7.95;;
434;SDS011;204;48.942;9.256;2022-09-29T01:14:41;7.90;;;7.00;;
434;SDS011;204;48.942;9.256;2022-09-29T01:17:07;7.65;;;7.28;;
434;SDS011;204;48.942;9.256;2022-09-29T01:22:19;10.50;;;7.13;;
434;SDS011;204;48.942;9.256;2022-09-29T01:38:55;8.52;;;6.63;;
434;SDS011;204;48.942;9.256;2022-09-29T01:41:52;8.10;;;6.88;;
434;SDS011;204;48.942;9.256;2022-09-29T01:44:53;7.60;;;7.20;;
434;SDS011;204;48.942;9.256;2022-09-29T01:47:38;8.43;;;7.50;;
434;SDS011;204;48.942;9.256;2022-09-29T01:50:12;6.40;;;5.93;;
434;SDS011;204;48.942;9.256;2022-09-29T01:52:47;6.60;;;6.20;;
434;SDS011;204;48.942;9.256;2022-09-29T01:55:19;9.60;;;6.55;;
434;SDS011;204;48.942;9.256;2022-09-29T01:57:57;7.80;;;7.40;;
434;SDS011;204;48.942;9.256;2022-09-29T02:00:26;8.57;;;7.35;;
434;SDS011;204;48.942;9.256;2022-09-29T02:05:42;7.43;;;7.00;;
434;SDS011;204;48.942;9.256;2022-09-29T02:08:24;7.80;;;7.40;;
434;SDS011;204;48.942;9.256;2022-09-29T02:11:07;8.23;;;7.82;;
434;SDS011;204;48.942;9.256;2022-09-29T02:13:35;12.05;;;7.32;;
434;SDS011;204;48.942;9.256;2022-09-29T02:16:02;7.80;;;7.25;;
434;SDS011;204;48.942;9.256;2022-09-29T02:18:37;7.53;;;6.55;;
434;SDS011;204;48.942;9.256;2022-09-29T02:21:13;6.93;;;6.50;;
434;SDS011;204;48.942;9.256;2022-09-29T02:23:38;7.10;;;6.70;;
434;SDS011;204;48.942;9.256;2022-09-29T02:26:04;7.20;;;5.70;;
434;SDS011;204;48.942;9.256;2022-09-29T02:28:30;6.53;;;5.85;;
434;SDS011;204;48.942;9.256;2022-09-29T02:30:56;6.77;;;6.10;;
434;SDS011;204;48.942;9.256;2022-09-29T02:33:23;7.03;;;6.20;;
434;SDS011;204;48.942;9.256;2022-09-29T02:38:42;11.00;;;6.55;;
434;SDS011;204;48.942;9.256;2022-09-29T02:41:20;5.78;;;5.47;;
434;SDS011;204;48.942;9.256;2022-09-29T02:44:04;6.45;;;6.07;;
434;SDS011;204;48.942;9.256;2022-09-29T02:52:10;7.50;;;6.07;;
434;SDS011;204;48.942;9.256;2022-09-29T03:00:19;10.07;;;6.88;;
434;SDS011;204;48.942;9.256;2022-09-29T03:02:45;6.53;;;5.53;;
434;SDS011;204;48.942;9.256;2022-09-29T03:05:12;7.85;;;6.70;;
434;SDS011;204;48.942;9.256;2022-09-29T03:07:40;7.70;;;5.63;;
434;SDS011;204;48.942;9.256;2022-09-29T03:10:06;6.60;;;5.27;;
434;SDS011;204;48.942;9.256;2022-09-29T03:12:33;5.65;;;5.35;;
434;SDS011;204;48.942;9.256;2022-09-29T03:14:59;6.60;;;6.20;;
434;SDS011;204;48.942;9.256;2022-09-29T03:17:25;5.87;;;5.57;;
434;SDS011;204;48.942;9.256;2022-09-29T03:19:50;5.47;;;5.17;;
434;SDS011;204;48.942;9.256;2022-09-29T03:22:16;5.53;;;5.23;;
434;SDS011;204;48.942;9.256;2022-09-29T03:24:42;6.22;;;5.60;;
434;SDS011;204;48.942;9.256;2022-09-29T03:27:08;6.50;;;6.07;;
434;SDS011;204;48.942;9.256;2022-09-29T03:29:34;6.50;;;6.10;;
434;SDS011;204;48.942;9.256;2022-09-29T03:32:00;7.45;;;5.90;;
434;SDS011;204;48.942;9.256;2022-09-29T03:34:26;6.05;;;5.75;;
434;SDS011;204;48.942;9.256;2022-09-29T03:36:52;6.57;;;4.90;;
434;SDS011;204;48.942;9.256;2022-09-29T03:39:17;7.63;;;5.50;;
434;SDS011;204;48.942;9.256;2022-09-29T03:41:43;8.70;;;5.40;;
434;SDS011;204;48.942;9.256;2022-09-29T03:44:09;7.77;;;5.70;;
434;SDS011;204;48.942;9.256;2022-09-29T03:46:34;5.77;;;5.50;;
434;SDS011;204;48.942;9.256;2022-09-29T03:49:00;5.83;;;5.37;;
434;SDS011;204;48.942;9.256;2022-09-29T03:51:25;6.80;;;5.90;;
434;SDS011;204;48.942;9.256;2022-09-29T03:53:51;6.10;;;5.73;;
434;SDS011;204;48.942;9.256;2022-09-29T03:56:17;5.50;;;5.20;;
434;SDS011;204;48.942;9.256;2022-09-29T03:58:43;7.50;;;6.07;;
434;SDS011;204;48.942;9.256;2022-09-29T04:01:09;6.60;;;6.20;;
434;SDS011;204;48.942;9.256;2022-09-29T04:03:34;6.43;;;6.03;;
434;SDS011;204;48.942;9.256;2022-09-29T04:06:00;6.97;;;6.57;;
434;SDS011;204;48.942;9.256;2022-09-29T04:08:25;6.93;;;5.87;;
434;SDS011;204;48.942;9.256;2022-09-29T04:10:51;11.63;;;6.20;;
434;SDS011;204;48.942;9.256;2022-09-29T04:13:16;7.17;;;6.80;;
434;SDS011;204;48.942;9.256;2022-09-29T04:15:42;6.77;;;5.53;;
434;SDS011;204;48.942;9.256;2022-09-29T04:18:08;7.03;;;6.07;;
434;SDS011;204;48.942;9.256;2022-09-29T04:20:33;6.37;;;6.00;;
434;SDS011;204;48.942;9.256;2022-09-29T04:22:59;8.50;;;6.83;;
434;SDS011;204;48.942;9.256;2022-09-29T04:25:28;7.30;;;6.90;;
434;SDS011;204;48.942;9.256;2022-09-29T04:27:54;7.13;;;5.97;;
434;SDS011;204;48.942;9.256;2022-09-29T04:30:19;5.23;;;4.90;;
434;SDS011;204;48.942;9.256;2022-09-29T04:32:45;8.67;;;6.53;;
434;SDS011;204;48.942;9.256;2022-09-29T04:35:10;7.07;;;6.67;;
434;SDS011;204;48.942;9.256;2022-09-29T04:37:36;7.50;;;6.27;;
434;SDS011;204;48.942;9.256;2022-09-29T04:40:02;9.93;;;6.47;;
434;SDS011;204;48.942;9.256;2022-09-29T04:42:29;7.22;;;6.82;;
434;SDS011;204;48.942;9.256;2022-09-29T04:44:54;7.13;;;5.90;;
434;SDS011;204;48.942;9.256;2022-09-29T04:47:20;6.73;;;5.20;;
434;SDS011;204;48.942;9.256;2022-09-29T04:49:45;5.93;;;5.67;;
434;SDS011;204;48.942;9.256;2022-09-29T04:52:11;12.23;;;6.60;;
434;SDS011;204;48.942;9.256;2022-09-29T04:54:37;5.50;;;5.20;;
434;SDS011;204;48.942;9.256;2022-09-29T04:57:03;7.90;;;6.20;;
434;SDS011;204;48.942;9.256;2022-09-29T04:59:29;6.15;;;5.85;;
434;SDS011;204;48.942;9.256;2022-09-29T05:01:55;7.07;;;6.67;;
434;SDS011;204;48.942;9.256;2022-09-29T05:04:20;7.20;;;6.80;;
434;SDS011;204;48.942;9.256;2022-09-29T05:06:46;7.97;;;6.60;;
434;SDS011;204;48.942;9.256;2022-09-29T05:09:12;9.00;;;7.57;;
434;SDS011;204;48.942;9.256;2022-09-29T05:11:38;6.97;;;6.57;;
434;SDS011;204;48.942;9.256;2022-09-29T05:14:04;9.37;;;6.40;;
434;SDS011;204;48.942;9.256;2022-09-29T05:16:30;6.80;;;5.87;;
434;SDS011;204;48.942;9.256;2022-09-29T05:18:55;6.68;;;6.28;;
434;SDS011;204;48.942;9.256;2022-09-29T05:21:21;8.33;;;7.40;;
434;SDS011;204;48.942;9.256;2022-09-29T05:23:47;8.10;;;6.50;;
434;SDS011;204;48.942;9.256;2022-09-29T05:26:13;7.67;;;7.03;;
434;SDS011;204;48.942;9.256;2022-09-29T05:28:42;8.13;;;6.73;;
434;SDS011;204;48.942;9.256;2022-09-29T05:31:09;9.15;;;7.40;;
434;SDS011;204;48.942;9.256;2022-09-29T05:33:36;11.75;;;7.63;;
434;SDS011;204;48.942;9.256;2022-09-29T05:36:05;7.55;;;6.57;;
434;SDS011;204;48.942;9.256;2022-09-29T05:38:33;7.53;;;6.80;;
434;SDS011;204;48.942;9.256;2022-09-29T05:41:02;7.63;;;7.25;;
434;SDS011;204;48.942;9.256;2022-09-29T05:43:32;12.57;;;7.90;;
434;SDS011;204;48.942;9.256;2022-09-29T05:46:00;7.53;;;7.13;;
434;SDS011;204;48.942;9.256;2022-09-29T05:48:28;8.50;;;7.53;;
434;SDS011;204;48.942;9.256;2022-09-29T05:50:54;7.57;;;7.05;;
434;SDS011;204;48.942;9.256;2022-09-29T05:53:21;6.78;;;6.38;;
434;SDS011;204;48.942;9.256;2022-09-29T05:55:47;8.57;;;6.32;;
434;SDS011;204;48.942;9.256;2022-09-29T05:58:12;5.27;;;4.97;;
434;SDS011;204;48.942;9.256;2022-09-29T06:00:38;6.70;;;6.30;;
434;SDS011;204;48.942;9.256;2022-09-29T06:03:04;8.10;;;7.40;;
434;SDS011;204;48.942;9.256;2022-09-29T06:05:29;7.20;;;6.70;;
434;SDS011;204;48.942;9.256;2022-09-29T06:07:55;6.97;;;6.57;;
434;SDS011;204;48.942;9.256;2022-09-29T06:10:21;11.27;;;7.40;;
434;SDS011;204;48.942;9.256;2022-09-29T06:12:47;12.23;;;6.55;;
434;SDS011;204;48.942;9.256;2022-09-29T06:15:12;6.10;;;5.80;;
434;SDS011;204;48.942;9.256;2022-09-29T06:17:38;7.87;;;7.47;;
434;SDS011;204;48.942;9.256;2022-09-29T06:20:04;10.30;;;8.57;;
434;SDS011;204;48.942;9.256;2022-09-29T06:22:33;9.65;;;8.95;;
434;SDS011;204;48.942;9.256;2022-09-29T06:24:59;9.30;;;7.07;;
434;SDS011;204;48.942;9.256;2022-09-29T06:27:24;9.40;;;8.90;;
434;SDS011;204;48.942;9.256;2022-09-29T06:29:50;12.13;;;8.73;;
434;SDS011;204;48.942;9.256;2022-09-29T06:32:15;8.07;;;7.63;;
434;SDS011;204;48.942;9.256;2022-09-29T06:34:41;8.07;;;7.67;;
434;SDS011;204;48.942;9.256;2022-09-29T06:37:25;9.05;;;6.85;;
434;SDS011;204;48.942;9.256;2022-09-29T06:40:01;11.57;;;7.55;;
434;SDS011;204;48.942;9.256;2022-09-29T06:42:28;11.13;;;7.28;;
434;SDS011;204;48.942;9.256;2022-09-29T06:44:54;9.60;;;7.57;;
434;SDS011;204;48.942;9.256;2022-09-29T06:47:20;8.43;;;6.50;;
434;SDS011;204;48.942;9.256;2022-09-29T06:49:45;9.93;;;6.40;;
434;SDS011;204;48.942;9.256;2022-09-29T06:52:11;8.87;;;6.20;;
434;SDS011;204;48.942;9.256;2022-09-29T06:54:36;6.27;;;5.40;;
434;SDS011;204;48.942;9.256;2022-09-29T06:57:02;7.90;;;5.70;;
434;SDS011;204;48.942;9.256;2022-09-29T06:59:28;7.77;;;5.90;;
434;SDS011;204;48.942;9.256;2022-09-29T07:01:53;5.50;;;5.20;;
434;SDS011;204;48.942;9.256;2022-09-29T07:04:19;6.00;;;5.70;;
434;SDS011;204;48.942;9.256;2022-09-29T07:06:45;6.40;;;6.00;;
434;SDS011;204;48.942;9.256;2022-09-29T07:09:11;6.77;;;5.13;;
434;SDS011;204;48.942;9.256;2022-09-29T07:11:40;5.85;;;5.18;;
434;SDS011;204;48.942;9.256;2022-09-29T07:14:14;7.25;;;4.53;;
434;SDS011;204;48.942;9.256;2022-09-29T07:16:40;9.68;;;5.90;;
434;SDS011;204;48.942;9.256;2022-09-29T07:19:06;6.32;;;5.25;;
434;SDS011;204;48.942;9.256;2022-09-29T07:21:32;8.50;;;4.80;;
434;SDS011;204;48.942;9.256;2022-09-29T07:23:58;6.55;;;4.82;;
434;SDS011;204;48.942;9.256;2022-09-29T07:26:24;6.13;;;5.80;;
434;SDS011;204;48.942;9.256;2022-09-29T07:28:50;5.80;;;5.50;;
434;SDS011;204;48.942;9.256;2022-09-29T07:31:16;5.47;;;5.17;;
434;SDS011;204;48.942;9.256;2022-09-29T07:33:44;5.00;;;4.72;;
434;SDS011;204;48.942;9.256;2022-09-29T07:36:11;6.00;;;5.20;;
434;SDS011;204;48.942;9.256;2022-09-29T07:38:38;5.28;;;5.03;;
434;SDS011;204;48.942;9.256;2022-09-29T07:41:04;6.07;;;4.43;;
434;SDS011;204;48.942;9.256;2022-09-29T07:43:32;4.60;;;4.30;;
434;SDS011;204;48.942;9.256;2022-09-29T07:45:58;5.30;;;5.00;;
434;SDS011;204;48.942;9.256;2022-09-29T07:48:24;5.97;;;5.18;;
434;SDS011;204;48.942;9.256;2022-09-29T07:50:50;6.38;;;5.45;;
434;SDS011;204;48.942;9.256;2022-09-29T07:53:16;5.45;;;4.35;;
434;SDS011;204;48.942;9.256;2022-09-29T07:55:42;5.17;;;4.60;;
434;SDS011;204;48.942;9.256;2022-09-29T07:58:08;7.50;;;4.60;;
434;SDS011;204;48.942;9.256;2022-09-29T08:00:33;4.90;;;4.20;;
434;SDS011;204;48.942;9.256;2022-09-29T08:03:00;6.03;;;4.13;;
434;SDS011;204;48.942;9.256;2022-09-29T08:05:27;5.60;;;4.25;;
434;SDS011;204;48.942;9.256;2022-09-29T08:07:53;4.50;;;4.20;;
434;SDS011;204;48.942;9.256;2022-09-29T08:10:19;5.30;;;5.00;;
434;SDS011;204;48.942;9.256;2022-09-29T08:12:45;4.57;;;4.28;;
434;SDS011;204;48.942;9.256;2022-09-29T08:15:10;7.10;;;5.13;;
434;SDS011;204;48.942;9.256;2022-09-29T08:17:36;4.40;;;4.10;;
434;SDS011;204;48.942;9.256;2022-09-29T08:20:01;4.23;;;3.80;;
434;SDS011;204;48.942;9.256;2022-09-29T08:22:27;4.53;;;3.80;;
434;SDS011;204;48.942;9.256;2022-09-29T08:24:53;4.90;;;3.73;;
434;SDS011;204;48.942;9.256;2022-09-29T08:27:18;5.20;;;4.67;;
434;SDS011;204;48.942;9.256;2022-09-29T08:29:44;4.60;;;4.20;;
434;SDS011;204;48.942;9.256;2022-09-29T08:32:09;4.73;;;4.07;;
434;SDS011;204;48.942;9.256;2022-09-29T08:34:35;5.83;;;5.53;;
434;SDS011;204;48.942;9.256;2022-09-29T08:37:00;6.57;;;4.57;;
434;SDS011;204;48.942;9.256;2022-09-29T08:39:26;5.20;;;4.90;;
434;SDS011;204;48.942;9.256;2022-09-29T08:41:59;4.67;;;4.37;;
434;SDS011;204;48.942;9.256;2022-09-29T08:44:33;5.47;;;4.10;;
434;SDS011;204;48.942;9.256;2022-09-29T08:47:03;2.85;;;2.55;;
434;SDS011;204;48.942;9.256;2022-09-29T08:52:22;3.67;;;3.15;;
434;SDS011;204;48.942;9.256;2022-09-29T08:54:56;3.47;;;3.28;;
434;SDS011;204;48.942;9.256;2022-09-29T08:57:27;2.42;;;2.28;;
434;SDS011;204;48.942;9.256;2022-09-29T08:59:58;2.85;;;2.60;;
434;SDS011;204;48.942;9.256;2022-09-29T09:10:34;4.72;;;2.85;;
434;SDS011;204;48.942;9.256;2022-09-29T09:16:11;2.80;;;2.60;;
434;SDS011;204;48.942;9.256;2022-09-29T09:21:19;2.55;;;2.35;;
434;SDS011;204;48.942;9.256;2022-09-29T09:23:57;2.95;;;2.42;;
434;SDS011;204;48.942;9.256;2022-09-29T09:26:37;2.55;;;2.17;;
434;SDS011;204;48.942;9.256;2022-09-29T09:29:16;3.97;;;2.42;;
434;SDS011;204;48.942;9.256;2022-09-29T09:31:56;2.35;;;2.20;;
434;SDS011;204;48.942;9.256;2022-09-29T09:34:30;3.03;;;2.40;;
434;SDS011;204;48.942;9.256;2022-09-29T09:37:04;3.88;;;3.38;;
434;SDS011;204;48.942;9.256;2022-09-29T09:39:47;4.50;;;2.63;;
434;SDS011;204;48.942;9.256;2022-09-29T09:42:30;4.95;;;2.42;;
434;SDS011;204;48.942;9.256;2022-09-29T09:45:22;2.60;;;2.40;;
434;SDS011;204;48.942;9.256;2022-09-29T09:47:58;3.83;;;3.20;;
434;SDS011;204;48.942;9.256;2022-09-29T09:50:38;3.05;;;2.17;;
434;SDS011;204;48.942;9.256;2022-09-29T09:53:13;2.65;;;2.45;;
434;SDS011;204;48.942;9.256;2022-09-29T09:55:48;3.10;;;2.90;;
434;SDS011;204;48.942;9.256;2022-09-29T09:58:34;4.28;;;2.65;;
434;SDS011;204;48.942;9.256;2022-09-29T10:01:17;4.67;;;2.83;;
434;SDS011;204;48.942;9.256;2022-09-29T10:03:43;3.08;;;2.50;;
434;SDS011;204;48.942;9.256;2022-09-29T10:06:09;3.17;;;2.20;;
434;SDS011;204;48.942;9.256;2022-09-29T10:08:35;4.73;;;2.80;;
434;SDS011;204;48.942;9.256;2022-09-29T10:11:11;5.60;;;2.80;;
434;SDS011;204;48.942;9.256;2022-09-29T10:13:38;2.75;;;2.25;;
434;SDS011;204;48.942;9.256;2022-09-29T10:16:15;4.13;;;2.85;;
434;SDS011;204;48.942;9.256;2022-09-29T10:18:45;9.27;;;2.70;;
434;SDS011;204;48.942;9.256;2022-09-29T10:21:21;4.53;;;2.80;;
434;SDS011;204;48.942;9.256;2022-09-29T10:23:52;5.95;;;3.28;;
434;SDS011;204;48.942;9.256;2022-09-29T10:26:22;4.07;;;2.80;;
434;SDS011;204;48.942;9.256;2022-09-29T10:28:54;2.73;;;2.53;;
434;SDS011;204;48.942;9.256;2022-09-29T10:31:25;2.38;;;2.10;;
434;SDS011;204;48.942;9.256;2022-09-29T10:36:51;3.20;;;2.17;;
434;SDS011;204;48.942;9.256;2022-09-29T10:45:23;3.13;;;2.23;;
434;SDS011;204;48.942;9.256;2022-09-29T10:50:35;4.97;;;2.50;;
434;SDS011;204;48.942;9.256;2022-09-29T10:55:58;3.07;;;1.77;;
434;SDS011;204;48.942;9.256;2022-09-29T10:58:36;2.23;;;2.07;;
434;SDS011;204;48.942;9.256;2022-09-29T11:01:14;4.20;;;1.83;;
434;SDS011;204;48.942;9.256;2022-09-29T11:03:51;4.70;;;2.70;;
434;SDS011;204;48.942;9.256;2022-09-29T11:06:28;4.90;;;2.03;;
434;SDS011;204;48.942;9.256;2022-09-29T11:08:59;2.10;;;1.80;;
434;SDS011;204;48.942;9.256;2022-09-29T11:11:28;6.97;;;1.90;;
434;SDS011;204;48.942;9.256;2022-09-29T11:13:55;2.20;;;1.70;;
434;SDS011;204;48.942;9.256;2022-09-29T11:32:06;3.03;;;1.80;;
434;SDS011;204;48.942;9.256;2022-09-29T11:34:40;4.77;;;1.70;;
434;SDS011;204;48.942;9.256;2022-09-29T11:37:15;2.97;;;1.93;;
434;SDS011;204;48.942;9.256;2022-09-29T11:39:51;3.40;;;2.13;;
434;SDS011;204;48.942;9.256;2022-09-29T11:45:45;3.10;;;1.60;;
434;SDS011;204;48.942;9.256;2022-09-29T11:48:37;3.27;;;1.43;;
434;SDS011;204;48.942;9.256;2022-09-29T12:05:00;4.00;;;1.60;;
434;SDS011;204;48.942;9.256;2022-09-29T12:16:06;2.97;;;1.87;;
434;SDS011;204;48.942;9.256;2022-09-29T12:21:04;10.13;;;6.80;;
434;SDS011;204;48.942;9.256;2022-09-29T12:23:32;2.77;;;2.57;;
434;SDS011;204;48.942;9.256;2022-09-29T12:26:03;1.93;;;1.63;;
434;SDS011;204;48.942;9.256;2022-09-29T12:28:40;1.90;;;1.40;;
434;SDS011;204;48.942;9.256;2022-09-29T12:31:22;1.87;;;1.40;;
434;SDS011;204;48.942;9.256;2022-09-29T12:33:56;2.70;;;1.50;;
434;SDS011;204;48.942;9.256;2022-09-29T12:44:54;3.93;;;1.57;;
434;SDS011;204;48.942;9.256;2022-09-29T12:52:57;3.97;;;1.33;;
434;SDS011;204;48.942;9.256;2022-09-29T12:55:49;2.90;;;1.30;;
434;SDS011;204;48.942;9.256;2022-09-29T13:01:18;3.07;;;1.30;;
434;SDS011;204;48.942;9.256;2022-09-29T13:04:02;2.60;;;1.30;;
434;SDS011;204;48.942;9.256;2022-09-29T13:06:34;3.13;;;1.77;;
434;SDS011;204;48.942;9.256;2022-09-29T13:15:05;1.90;;;1.20;;
434;SDS011;204;48.942;9.256;2022-09-29T13:29:03;1.83;;;1.23;;
434;SDS011;204;48.942;9.256;2022-09-29T13:31:45;0.90;;;0.80;;
434;SDS011;204;48.942;9.256;2022-09-29T13:34:26;2.80;;;1.80;;
434;SDS011;204;48.942;9.256;2022-09-29T13:37:04;1.97;;;1.87;;
434;SDS011;204;48.942;9.256;2022-09-29T13:39:35;1.70;;;1.40;;
434;SDS011;204;48.942;9.256;2022-09-29T13:47:44;3.13;;;1.40;;
434;SDS011;204;48.942;9.256;2022-09-29T13:55:50;7.63;;;2.03;;
434;SDS011;204;48.942;9.256;2022-09-29T13:58:26;1.90;;;1.57;;
434;SDS011;204;48.942;9.256;2022-09-29T14:00:54;2.20;;;1.30;;
434;SDS011;204;48.942;9.256;2022-09-29T14:05:52;2.20;;;1.20;;
434;SDS011;204;48.942;9.256;2022-09-29T14:14:23;2.03;;;1.13;;
434;SDS011;204;48.942;9.256;2022-09-29T14:21:59;1.83;;;1.23;;
434;SDS011;204;48.942;9.256;2022-09-29T14:29:40;1.90;;;0.80;;
434;SDS011;204;48.942;9.256;2022-09-29T14:32:13;3.00;;;1.10;;
434;SDS011;204;48.942;9.256;2022-09-29T14:34:46;2.40;;;0.83;;
434;SDS011;204;48.942;9.256;2022-09-29T14:37:18;1.13;;;1.07;;
434;SDS011;204;48.942;9.256;2022-09-29T14:39:46;1.03;;;0.87;;
434;SDS011;204;48.942;9.256;2022-09-29T14:42:32;1.67;;;1.00;;
434;SDS011;204;48.942;9.256;2022-09-29T14:44:58;1.63;;;0.83;;
434;SDS011;204;48.942;9.256;2022-09-29T14:59:26;3.53;;;1.20;;
434;SDS011;204;48.942;9.256;2022-09-29T15:02:21;1.80;;;1.40;;
434;SDS011;204;48.942;9.256;2022-09-29T15:04:50;2.17;;;1.50;;
434;SDS011;204;48.942;9.256;2022-09-29T15:07:17;2.40;;;1.17;;
434;SDS011;204;48.942;9.256;2022-09-29T15:09:51;1.53;;;1.30;;
434;SDS011;204;48.942;9.256;2022-09-29T15:12:19;2.43;;;1.23;;
434;SDS011;204;48.942;9.256;2022-09-29T15:14:47;5.33;;;1.37;;
434;SDS011;204;48.942;9.256;2022-09-29T15:25:55;2.97;;;1.30;;
434;SDS011;204;48.942;9.256;2022-09-29T15:30:56;3.10;;;1.95;;
434;SDS011;204;48.942;9.256;2022-09-29T15:33:29;2.27;;;1.20;;
434;SDS011;204;48.942;9.256;2022-09-29T15:36:06;2.07;;;1.27;;
434;SDS011;204;48.942;9.256;2022-09-29T15:38:54;1.60;;;1.17;;
434;SDS011;204;48.942;9.256;2022-09-29T15:41:29;1.73;;;1.37;;
434;SDS011;204;48.942;9.256;2022-09-29T15:44:16;2.33;;;1.30;;
434;SDS011;204;48.942;9.256;2022-09-29T15:46:48;2.73;;;1.33;;
434;SDS011;204;48.942;9.256;2022-09-29T15:52:02;1.80;;;0.95;;
434;SDS011;204;48.942;9.256;2022-09-29T15:54:39;1.75;;;1.10;;
434;SDS011;204;48.942;9.256;2022-09-29T16:03:09;1.63;;;1.05;;
434;SDS011;204;48.942;9.256;2022-09-29T16:05:44;3.42;;;1.60;;
434;SDS011;204;48.942;9.256;2022-09-29T16:08:37;2.30;;;1.48;;
434;SDS011;204;48.942;9.256;2022-09-29T16:11:07;4.45;;;1.48;;
434;SDS011;204;48.942;9.256;2022-09-29T16:13:39;5.20;;;1.98;;
434;SDS011;204;48.942;9.256;2022-09-29T16:16:10;3.70;;;2.50;;
434;SDS011;204;48.942;9.256;2022-09-29T16:18:40;4.10;;;2.17;;
434;SDS011;204;48.942;9.256;2022-09-29T16:21:12;1.45;;;1.42;;
434;SDS011;204;48.942;9.256;2022-09-29T16:23:43;2.45;;;1.42;;
434;SDS011;204;48.942;9.256;2022-09-29T16:26:32;1.70;;;1.60;;
434;SDS011;204;48.942;9.256;2022-09-29T16:31:36;1.80;;;1.80;;
434;SDS011;204;48.942;9.256;2022-09-29T16:39:20;2.70;;;1.63;;
434;SDS011;204;48.942;9.256;2022-09-29T16:41:49;3.10;;;1.70;;
434;SDS011;204;48.942;9.256;2022-09-29T16:44:27;2.08;;;1.73;;
434;SDS011;204;48.942;9.256;2022-09-29T16:47:10;3.75;;;1.90;;
434;SDS011;204;48.942;9.256;2022-09-29T16:49:51;3.08;;;1.83;;
434;SDS011;204;48.942;9.256;2022-09-29T16:52:23;2.53;;;1.63;;
434;SDS011;204;48.942;9.256;2022-09-29T16:57:54;3.15;;;1.50;;
434;SDS011;204;48.942;9.256;2022-09-29T17:00:23;1.65;;;1.60;;
434;SDS011;204;48.942;9.256;2022-09-29T17:02:52;2.27;;;2.10;;
434;SDS011;204;48.942;9.256;2022-09-29T17:05:29;3.38;;;2.00;;
434;SDS011;204;48.942;9.256;2022-09-29T17:08:01;4.45;;;2.58;;
434;SDS011;204;48.942;9.256;2022-09-29T17:10:29;7.32;;;2.08;;
434;SDS011;204;48.942;9.256;2022-09-29T17:12:55;4.78;;;2.35;;
434;SDS011;204;48.942;9.256;2022-09-29T17:15:22;3.03;;;2.00;;
434;SDS011;204;48.942;9.256;2022-09-29T17:17:50;4.80;;;2.00;;
434;SDS011;204;48.942;9.256;2022-09-29T17:20:17;2.35;;;1.75;;
434;SDS011;204;48.942;9.256;2022-09-29T17:22:44;4.80;;;2.88;;
434;SDS011;204;48.942;9.256;2022-09-29T17:25:11;3.15;;;2.10;;
434;SDS011;204;48.942;9.256;2022-09-29T17:27:37;3.58;;;2.42;;
434;SDS011;204;48.942;9.256;2022-09-29T17:30:23;2.30;;;2.10;;
434;SDS011;204;48.942;9.256;2022-09-29T17:32:52;4.40;;;2.00;;
434;SDS011;204;48.942;9.256;2022-09-29T17:35:20;3.38;;;2.20;;
434;SDS011;204;48.942;9.256;2022-09-29T17:37:49;5.28;;;3.38;;
434;SDS011;204;48.942;9.256;2022-09-29T17:40:20;4.23;;;3.07;;
434;SDS011;204;48.942;9.256;2022-09-29T17:42:57;5.00;;;3.00;;
434;SDS011;204;48.942;9.256;2022-09-29T17:45:26;4.97;;;3.38;;
434;SDS011;204;48.942;9.256;2022-09-29T17:47:54;4.88;;;3.40;;
434;SDS011;204;48.942;9.256;2022-09-29T17:50:27;5.43;;;2.97;;
434;SDS011;204;48.942;9.256;2022-09-29T17:52:57;5.00;;;2.85;;
434;SDS011;204;48.942;9.256;2022-09-29T17:55:24;5.07;;;3.50;;
434;SDS011;204;48.942;9.256;2022-09-29T17:57:51;4.20;;;3.30;;
434;SDS011;204;48.942;9.256;2022-09-29T18:00:19;4.28;;;2.85;;
434;SDS011;204;48.942;9.256;2022-09-29T18:02:50;3.85;;;3.00;;
434;SDS011;204;48.942;9.256;2022-09-29T18:05:21;4.15;;;3.28;;
434;SDS011;204;48.942;9.256;2022-09-29T18:07:49;9.90;;;3.85;;
434;SDS011;204;48.942;9.256;2022-09-29T18:10:20;4.97;;;3.78;;
434;SDS011;204;48.942;9.256;2022-09-29T18:12:47;5.53;;;3.42;;
434;SDS011;204;48.942;9.256;2022-09-29T18:15:13;8.07;;;7.68;;
434;SDS011;204;48.942;9.256;2022-09-29T18:17:41;9.25;;;8.75;;
434;SDS011;204;48.942;9.256;2022-09-29T18:20:15;7.30;;;5.50;;
434;SDS011;204;48.942;9.256;2022-09-29T18:22:43;8.50;;;4.45;;
434;SDS011;204;48.942;9.256;2022-09-29T18:25:10;7.10;;;6.70;;
434;SDS011;204;48.942;9.256;2022-09-29T18:27:37;5.80;;;5.50;;
434;SDS011;204;48.942;9.256;2022-09-29T18:32:48;6.13;;;5.03;;
434;SDS011;204;48.942;9.256;2022-09-29T18:35:18;5.85;;;4.20;;
434;SDS011;204;48.942;9.256;2022-09-29T18:37:45;6.18;;;4.30;;
434;SDS011;204;48.942;9.256;2022-09-29T18:40:11;5.27;;;4.97;;
434;SDS011;204;48.942;9.256;2022-09-29T18:42:38;7.25;;;4.85;;
434;SDS011;204;48.942;9.256;2022-09-29T18:45:05;6.82;;;4.35;;
434;SDS011;204;48.942;9.256;2022-09-29T18:47:33;5.10;;;4.80;;
434;SDS011;204;48.942;9.256;2022-09-29T18:49:59;6.82;;;4.28;;
434;SDS011;204;48.942;9.256;2022-09-29T18:52:25;6.67;;;5.73;;
434;SDS011;204;48.942;9.256;2022-09-29T18:54:52;6.25;;;5.68;;
434;SDS011;204;48.942;9.256;2022-09-29T18:57:18;8.43;;;4.97;;
434;SDS011;204;48.942;9.256;2022-09-29T18:59:43;6.53;;;4.40;;
434;SDS011;204;48.942;9.256;2022-09-29T19:02:12;5.67;;;4.67;;
434;SDS011;204;48.942;9.256;2022-09-29T19:04:38;10.07;;;4.85;;
434;SDS011;204;48.942;9.256;2022-09-29T19:07:03;7.27;;;4.60;;
434;SDS011;204;48.942;9.256;2022-09-29T19:09:32;4.28;;;4.00;;
434;SDS011;204;48.942;9.256;2022-09-29T19:11:57;6.73;;;4.10;;
434;SDS011;204;48.942;9.256;2022-09-29T19:14:23;4.07;;;3.67;;
434;SDS011;204;48.942;9.256;2022-09-29T19:16:48;4.23;;;3.77;;
434;SDS011;204;48.942;9.256;2022-09-29T19:19:14;5.23;;;3.67;;
434;SDS011;204;48.942;9.256;2022-09-29T19:21:40;4.18;;;3.50;;
434;SDS011;204;48.942;9.256;2022-09-29T19:24:06;7.32;;;3.97;;
434;SDS011;204;48.942;9.256;2022-09-29T19:26:32;6.80;;;4.33;;
434;SDS011;204;48.942;9.256;2022-09-29T19:28:57;4.57;;;4.17;;
434;SDS011;204;48.942;9.256;2022-09-29T19:31:23;15.07;;;6.30;;
434;SDS011;204;48.942;9.256;2022-09-29T19:33:49;9.07;;;5.63;;
434;SDS011;204;48.942;9.256;2022-09-29T19:36:16;10.53;;;6.60;;
434;SDS011;204;48.942;9.256;2022-09-29T19:38:43;7.95;;;7.55;;
434;SDS011;204;48.942;9.256;2022-09-29T19:41:13;11.23;;;9.33;;